Time;durP1;ratioP1;P1;durP2;ratioP2;P2;SDS_P1;SDS_P2;PMS_P1;PMS_P2;Temp;Humidity;BMP_temperature;BMP_pressure;BME280_temperature;BME280_humidity;BME280_pressure;Samples;Min_cycle;Max_cycle;Signal;HPM_P1;HPM_P2
2020/12/19 00:01:55;;;;;;;0.47;0.47;;;15.70;87.90;;;;;;4231087;28;20789;-42
2020/12/19 00:04:30;;;;;;;0.57;0.57;;;15.70;87.70;;;;;;4230990;28;20102;-42
2020/12/19 00:06:52;;;;;;;0.00;0.00;;;15.70;87.70;;;;;;4230881;28;20052;-42
2020/12/19 00:09:13;;;;;;;0.13;0.13;;;15.70;87.60;;;;;;4231550;28;20055;-40
2020/12/19 00:11:34;;;;;;;0.08;0.08;;;15.70;87.60;;;;;;4214750;28;20052;-40
2020/12/19 00:13:55;;;;;;;0.05;0.05;;;15.70;87.70;;;;;;4228101;28;20539;-43
2020/12/19 00:16:17;;;;;;;0.00;0.00;;;15.70;87.80;;;;;;4231516;28;20126;-42
2020/12/19 00:18:39;;;;;;;;;;;15.70;87.80;;;;;;4231420;28;20056;-42
2020/12/19 00:21:03;;;;;;;0.00;0.00;;;15.60;88.00;;;;;;4230866;28;20403;-41
2020/12/19 00:23:25;;;;;;;0.20;0.20;;;15.60;88.10;;;;;;4230473;28;20052;-42
2020/12/19 00:25:46;;;;;;;0.30;0.30;;;15.50;88.30;;;;;;4230464;28;20131;-41
2020/12/19 00:28:07;;;;;;;0.00;0.00;;;15.50;88.40;;;;;;4230478;28;20051;-43
2020/12/19 00:30:28;;;;;;;0.17;0.17;;;15.50;88.60;;;;;;4230540;28;20467;-42
2020/12/19 00:32:49;;;;;;;0.00;0.00;;;15.40;88.70;;;;;;4229413;28;20443;-42
2020/12/19 00:35:10;;;;;;;0.00;0.00;;;15.40;88.80;;;;;;4230602;28;20077;-40
2020/12/19 00:37:32;;;;;;;0.00;0.00;;;15.40;89.00;;;;;;4230799;27;20139;-42
2020/12/19 00:39:53;;;;;;;0.00;0.00;;;15.30;89.10;;;;;;4230835;27;20058;-42
2020/12/19 00:42:14;;;;;;;0.00;0.00;;;15.30;89.20;;;;;;4230029;28;20052;-42
2020/12/19 00:44:35;;;;;;;0.13;0.13;;;15.30;89.40;;;;;;4230432;28;20052;-42
2020/12/19 00:46:56;;;;;;;0.22;0.22;;;15.20;89.50;;;;;;4230475;28;20085;-42
2020/12/19 00:49:18;;;;;;;1.23;1.20;;;15.20;89.60;;;;;;4230574;28;20061;-42
2020/12/19 00:51:39;;;;;;;0.00;0.00;;;15.20;89.70;;;;;;4230237;28;20048;-42
2020/12/19 00:54:00;;;;;;;0.32;0.32;;;15.20;89.80;;;;;;4229983;28;20048;-43
2020/12/19 00:56:23;;;;;;;0.35;0.35;;;15.10;89.70;;;;;;4229950;28;20066;-42
2020/12/19 00:58:45;;;;;;;0.38;0.38;;;15.10;89.90;;;;;;4229559;28;20421;-42
2020/12/19 01:01:06;;;;;;;0.00;0.00;;;15.10;89.90;;;;;;4230222;28;20105;-39
2020/12/19 01:03:26;;;;;;;0.00;0.00;;;15.00;90.00;;;;;;4230275;28;20059;-42
2020/12/19 01:05:47;;;;;;;0.80;0.80;;;15.00;90.00;;;;;;4229767;28;20055;-43
2020/12/19 01:08:08;;;;;;;0.00;0.00;;;15.00;90.10;;;;;;4230581;28;20056;-40
2020/12/19 01:10:29;;;;;;;;;;;15.00;90.10;;;;;;4230519;28;20051;-40
2020/12/19 01:12:51;;;;;;;0.00;0.00;;;15.00;90.20;;;;;;4229851;28;20008;-40
2020/12/19 01:15:12;;;;;;;0.50;0.50;;;14.90;90.20;;;;;;4230115;28;20301;-42
2020/12/19 01:17:40;;;;;;;0.00;0.00;;;14.90;90.20;;;;;;4230149;28;20035;-42
2020/12/19 01:20:01;;;;;;;0.10;0.10;;;14.90;90.20;;;;;;4229648;28;20066;-42
2020/12/19 01:22:22;;;;;;;0.00;0.00;;;14.90;90.30;;;;;;4229856;28;20055;-42
2020/12/19 01:24:42;;;;;;;0.08;0.08;;;14.80;90.30;;;;;;4230203;28;20119;-42
2020/12/19 01:27:04;;;;;;;0.20;0.20;;;14.80;90.30;;;;;;4229889;28;20152;-41
2020/12/19 01:29:26;;;;;;;1.00;1.00;;;14.80;90.40;;;;;;4222659;28;20108;-40
2020/12/19 01:31:47;;;;;;;0.75;0.75;;;14.80;90.40;;;;;;4229939;28;20059;-42
2020/12/19 01:34:08;;;;;;;0.00;0.00;;;14.80;90.40;;;;;;4230435;28;20666;-42
2020/12/19 01:36:29;;;;;;;0.00;0.00;;;14.80;90.50;;;;;;4229843;28;20475;-42
2020/12/19 01:38:50;;;;;;;0.10;0.10;;;14.70;90.50;;;;;;4229470;28;20060;-41
2020/12/19 01:41:12;;;;;;;0.22;0.22;;;14.70;90.60;;;;;;4229990;28;20414;-42
2020/12/19 01:43:43;;;;;;;;;;;14.70;90.60;;;;;;4229873;28;20792;-41
2020/12/19 01:46:05;;;;;;;0.00;0.00;;;14.70;90.70;;;;;;4229760;27;19938;-42
2020/12/19 01:48:27;;;;;;;0.00;0.00;;;14.70;90.70;;;;;;4229635;28;20051;-42
2020/12/19 01:50:49;;;;;;;0.00;0.00;;;14.60;90.70;;;;;;4229291;27;20138;-42
2020/12/19 01:53:11;;;;;;;0.25;0.10;;;14.60;90.80;;;;;;4229728;28;20532;-43
2020/12/19 01:55:32;;;;;;;;;;;14.60;90.80;;;;;;4229940;28;20444;-41
2020/12/19 01:57:53;;;;;;;0.00;0.00;;;14.60;90.90;;;;;;4229375;28;19978;-42
2020/12/19 02:00:14;;;;;;;0.00;0.00;;;14.60;90.80;;;;;;4228463;28;20047;-42
2020/12/19 02:02:36;;;;;;;0.00;0.00;;;14.60;90.80;;;;;;4229355;28;20059;-40
2020/12/19 02:04:57;;;;;;;0.45;0.45;;;14.60;90.80;;;;;;4229286;28;20050;-41
2020/12/19 02:07:18;;;;;;;0.00;0.00;;;14.60;90.90;;;;;;4229522;28;20067;-42
2020/12/19 02:09:41;;;;;;;0.40;0.38;;;14.60;90.90;;;;;;4229292;28;20467;-40
2020/12/19 02:12:02;;;;;;;0.00;0.00;;;14.50;90.90;;;;;;4227446;28;20051;-40
2020/12/19 02:14:23;;;;;;;0.00;0.00;;;14.50;91.30;;;;;;4229347;28;20047;-40
2020/12/19 02:16:54;;;;;;;0.00;0.00;;;14.50;91.00;;;;;;4229699;28;20065;-42
2020/12/19 02:19:16;;;;;;;0.00;0.00;;;14.50;91.00;;;;;;4227940;28;20831;-41
2020/12/19 02:21:37;;;;;;;0.00;0.00;;;14.50;91.00;;;;;;4229150;28;20053;-42
2020/12/19 02:23:59;;;;;;;0.00;0.00;;;14.50;91.00;;;;;;4229157;28;20066;-42
2020/12/19 02:26:20;;;;;;;0.00;0.00;;;14.50;91.00;;;;;;4229201;28;20060;-42
2020/12/19 02:28:40;;;;;;;0.10;0.10;;;14.50;91.00;;;;;;4229328;28;20055;-42
2020/12/19 02:31:02;;;;;;;0.28;0.28;;;14.40;91.10;;;;;;4228982;28;20056;-42
2020/12/19 02:33:22;;;;;;;;;;;14.40;91.10;;;;;;4229509;28;20055;-42
2020/12/19 02:35:58;;;;;;;0.45;0.45;;;14.40;91.10;;;;;;4228920;28;20004;-41
2020/12/19 02:38:19;;;;;;;4.18;0.75;;;14.40;91.10;;;;;;4229038;28;20547;-41
2020/12/19 02:40:41;;;;;;;0.70;0.70;;;14.40;91.20;;;;;;4229117;28;20463;-41
2020/12/19 02:43:07;;;;;;;0.10;0.10;;;14.40;91.20;;;;;;4229034;28;20050;-41
2020/12/19 02:45:28;;;;;;;0.20;0.20;;;14.40;91.20;;;;;;4229017;28;20505;-41
2020/12/19 02:47:49;;;;;;;0.35;0.35;;;14.30;91.60;;;;;;4229410;28;20494;-42
2020/12/19 02:50:11;;;;;;;0.00;0.00;;;14.40;91.20;;;;;;4228933;28;20636;-42
2020/12/19 02:52:34;;;;;;;0.00;0.00;;;14.50;91.10;;;;;;4229147;28;20413;-41
2020/12/19 02:54:56;;;;;;;1.45;0.50;;;14.60;90.90;;;;;;4228676;28;20121;-41
2020/12/19 02:57:21;;;;;;;0.77;0.77;;;14.60;90.80;;;;;;4228430;28;20462;-42
2020/12/19 02:59:42;;;;;;;0.10;0.10;;;14.70;90.70;;;;;;4229073;28;20052;-41
2020/12/19 03:02:03;;;;;;;0.30;0.30;;;14.70;90.50;;;;;;4228702;28;20100;-42
2020/12/19 03:04:24;;;;;;;0.10;0.10;;;14.70;90.40;;;;;;4228928;28;20058;-42
2020/12/19 03:06:45;;;;;;;1.45;0.85;;;14.80;90.40;;;;;;4212018;28;20048;-42
2020/12/19 03:09:05;;;;;;;0.00;0.00;;;14.80;90.40;;;;;;4211887;28;20064;-42
2020/12/19 03:11:26;;;;;;;0.00;0.00;;;14.70;90.40;;;;;;4212057;28;20052;-42
2020/12/19 03:13:48;;;;;;;0.00;0.00;;;14.70;90.40;;;;;;4213748;28;20052;-42
2020/12/19 03:16:09;;;;;;;0.00;0.00;;;14.70;90.40;;;;;;4229237;28;20051;-42
2020/12/19 03:18:29;;;;;;;0.30;0.30;;;14.70;90.40;;;;;;4228718;28;20051;-42
2020/12/19 03:20:50;;;;;;;0.20;0.20;;;14.70;90.50;;;;;;4228599;28;20040;-44
2020/12/19 03:23:11;;;;;;;0.00;0.00;;;14.70;90.50;;;;;;4231422;28;20516;-42
2020/12/19 03:25:32;;;;;;;0.00;0.00;;;14.60;90.50;;;;;;4214836;28;20055;-45
2020/12/19 03:27:53;;;;;;;0.00;0.00;;;14.60;90.50;;;;;;4226275;28;20104;-49
2020/12/19 03:30:16;;;;;;;0.60;0.60;;;14.60;90.50;;;;;;4232154;28;20051;-42
2020/12/19 03:32:37;;;;;;;0.00;0.00;;;14.60;90.90;;;;;;4231807;28;20065;-43
2020/12/19 03:34:58;;;;;;;;;;;14.50;90.60;;;;;;4232021;28;20063;-47
2020/12/19 03:37:19;;;;;;;0.00;0.00;;;14.50;90.60;;;;;;4232039;28;19992;-42
2020/12/19 03:39:39;;;;;;;0.00;0.00;;;14.50;90.70;;;;;;4231583;28;20130;-46
2020/12/19 03:42:00;;;;;;;0.00;0.00;;;14.50;90.70;;;;;;4231394;28;20051;-44
2020/12/19 03:44:21;;;;;;;0.00;0.00;;;14.40;90.80;;;;;;4231778;28;20051;-42
2020/12/19 03:46:43;;;;;;;0.00;0.00;;;14.40;90.90;;;;;;4231285;28;20051;-42
2020/12/19 03:49:04;;;;;;;0.20;0.20;;;14.40;90.90;;;;;;4231834;28;20134;-42
2020/12/19 03:51:25;;;;;;;0.20;0.20;;;14.30;90.90;;;;;;4231854;28;20061;-42
2020/12/19 03:53:46;;;;;;;0.00;0.00;;;14.40;91.10;;;;;;4231041;28;20122;-42
2020/12/19 03:56:08;;;;;;;0.00;0.00;;;14.50;90.80;;;;;;4231213;28;20559;-43
2020/12/19 03:58:29;;;;;;;0.00;0.00;;;14.80;90.40;;;;;;4213452;28;20052;-43
2020/12/19 04:00:50;;;;;;;0.00;0.00;;;14.90;90.00;;;;;;4214428;28;20056;-43
2020/12/19 04:03:12;;;;;;;1.02;0.50;;;15.00;89.50;;;;;;4214846;28;20048;-42
2020/12/19 04:05:34;;;;;;;0.30;0.30;;;15.10;89.20;;;;;;4222770;28;20055;-41
2020/12/19 04:07:54;;;;;;;0.10;0.10;;;15.10;89.00;;;;;;4231191;28;20058;-41
2020/12/19 04:10:15;;;;;;;1.83;0.82;;;15.10;88.80;;;;;;4231113;27;20077;-42
2020/12/19 04:12:37;;;;;;;0.00;0.00;;;15.10;88.80;;;;;;4231240;28;20413;-44
2020/12/19 04:14:57;;;;;;;0.00;0.00;;;15.00;88.90;;;;;;4214400;28;20137;-41
2020/12/19 04:17:18;;;;;;;0.00;0.00;;;15.00;89.00;;;;;;4214286;28;20406;-42
2020/12/19 04:19:41;;;;;;;0.90;0.90;;;15.00;90.00;;;;;;4214392;28;20562;-42
2020/12/19 04:22:03;;;;;;;0.52;0.52;;;14.90;89.20;;;;;;4221220;28;20097;-42
2020/12/19 04:24:24;;;;;;;0.65;0.65;;;14.90;89.30;;;;;;4230977;28;20082;-42
2020/12/19 04:26:46;;;;;;;0.00;0.00;;;14.90;89.50;;;;;;4230842;28;20074;-42
2020/12/19 04:29:06;;;;;;;0.00;0.00;;;14.80;89.60;;;;;;4231442;28;20051;-42
2020/12/19 04:31:27;;;;;;;0.00;0.00;;;14.80;89.80;;;;;;4230912;28;20071;-42
2020/12/19 04:33:48;;;;;;;0.15;0.15;;;14.70;89.90;;;;;;4229474;28;20315;-42
2020/12/19 04:36:10;;;;;;;;;;;14.70;90.00;;;;;;4231585;28;20072;-42
2020/12/19 04:38:31;;;;;;;0.63;0.63;;;14.70;90.10;;;;;;4230773;28;19965;-42
2020/12/19 04:40:52;;;;;;;0.00;0.00;;;14.60;90.10;;;;;;4230589;28;20443;-43
2020/12/19 04:43:15;;;;;;;0.32;0.32;;;14.60;90.10;;;;;;4230884;28;20126;-42
2020/12/19 04:45:36;;;;;;;0.00;0.00;;;14.60;90.20;;;;;;4231188;28;20501;-42
2020/12/19 04:47:57;;;;;;;;;;;14.50;90.30;;;;;;4231525;28;20054;-42
2020/12/19 04:50:21;;;;;;;0.10;0.10;;;14.50;90.30;;;;;;4231238;28;19972;-42
2020/12/19 04:52:43;;;;;;;0.10;0.10;;;14.50;90.40;;;;;;4230098;27;20044;-42
2020/12/19 04:55:03;;;;;;;0.70;0.70;;;14.50;90.40;;;;;;4230488;28;20098;-42
2020/12/19 04:57:24;;;;;;;0.00;0.00;;;14.40;90.50;;;;;;4229977;28;20089;-42
2020/12/19 04:59:46;;;;;;;0.30;0.30;;;14.40;90.50;;;;;;4230714;28;20459;-42
2020/12/19 05:02:07;;;;;;;0.35;0.35;;;14.40;90.60;;;;;;4230110;27;20144;-42
2020/12/19 05:04:28;;;;;;;0.08;0.08;;;14.50;90.60;;;;;;4230100;28;20051;-41
2020/12/19 05:06:49;;;;;;;0.03;0.03;;;14.60;90.30;;;;;;4230320;28;20548;-41
2020/12/19 05:09:10;;;;;;;0.00;0.00;;;14.70;90.10;;;;;;4230436;28;20068;-42
2020/12/19 05:11:31;;;;;;;;;;;14.80;89.90;;;;;;4230489;28;20101;-42
2020/12/19 05:13:52;;;;;;;0.10;0.10;;;14.80;89.60;;;;;;4229967;28;19926;-42
2020/12/19 05:16:14;;;;;;;0.10;0.10;;;14.80;89.50;;;;;;4230640;28;20455;-42
2020/12/19 05:18:36;;;;;;;0.03;0.03;;;14.80;89.50;;;;;;4230108;28;20051;-42
2020/12/19 05:20:57;;;;;;;0.17;0.17;;;14.80;89.50;;;;;;4229741;28;20054;-42
2020/12/19 05:23:20;;;;;;;0.43;0.43;;;14.80;89.60;;;;;;4212239;28;20135;-41
2020/12/19 05:25:43;;;;;;;0.15;0.15;;;14.70;89.60;;;;;;4212302;28;20601;-41
2020/12/19 05:28:04;;;;;;;0.00;0.00;;;14.70;90.30;;;;;;4213077;28;20079;-42
2020/12/19 05:30:25;;;;;;;0.35;0.35;;;14.70;90.00;;;;;;4213180;28;20052;-42
2020/12/19 05:32:49;;;;;;;0.00;0.00;;;14.70;90.00;;;;;;4222613;28;20136;-42
2020/12/19 05:35:15;;;;;;;0.82;0.63;;;14.60;90.10;;;;;;4212853;28;20052;-42
2020/12/19 05:37:56;;;;;;;0.20;0.20;;;14.50;90.10;;;;;;4212818;28;20139;-42
2020/12/19 05:40:17;;;;;;;0.00;0.00;;;14.50;90.20;;;;;;4212653;28;20056;-43
2020/12/19 05:42:40;;;;;;;0.40;0.40;;;14.60;90.20;;;;;;4227908;28;20100;-42
2020/12/19 05:45:23;;;;;;;1.15;0.52;;;14.70;89.80;;;;;;4229451;28;20514;-43
2020/12/19 05:47:45;;;;;;;0.00;0.00;;;14.80;89.20;;;;;;4229766;28;20521;-42
2020/12/19 05:50:06;;;;;;;0.00;0.00;;;14.90;88.90;;;;;;4230008;28;20146;-43
2020/12/19 05:52:27;;;;;;;0.10;0.10;;;14.90;88.60;;;;;;4229046;27;20510;-44
2020/12/19 05:54:53;;;;;;;0.22;0.22;;;15.00;88.20;;;;;;4229839;27;20058;-42
2020/12/19 05:57:18;;;;;;;0.00;0.00;;;15.00;87.90;;;;;;4229056;28;20398;-43
2020/12/19 05:59:40;;;;;;;0.00;0.00;;;15.00;87.80;;;;;;4229342;28;20574;-41
2020/12/19 06:02:02;;;;;;;0.10;0.10;;;15.00;87.80;;;;;;4230053;28;20134;-43
2020/12/19 06:04:26;;;;;;;0.20;0.20;;;15.00;87.90;;;;;;4229046;28;20097;-42
2020/12/19 06:06:48;;;;;;;0.00;0.00;;;14.90;88.00;;;;;;4229452;28;20486;-42
2020/12/19 06:09:11;;;;;;;0.00;0.00;;;14.90;88.30;;;;;;4229471;28;20508;-43
2020/12/19 06:11:41;;;;;;;0.10;0.10;;;14.80;88.40;;;;;;4229221;28;20056;-42
2020/12/19 06:14:09;;;;;;;2.28;0.80;;;14.80;88.70;;;;;;4229260;28;20051;-42
2020/12/19 06:16:32;;;;;;;0.10;0.10;;;14.70;88.90;;;;;;4229207;27;20051;-42
2020/12/19 06:19:07;;;;;;;0.00;0.00;;;14.70;89.00;;;;;;4229553;28;20048;-43
2020/12/19 06:21:28;;;;;;;0.00;0.00;;;14.60;89.20;;;;;;4228846;28;20093;-44
2020/12/19 06:23:50;;;;;;;0.08;0.08;;;14.60;89.30;;;;;;4229796;28;20078;-45
2020/12/19 06:26:12;;;;;;;0.60;0.60;;;14.50;89.40;;;;;;4228911;28;20132;-45
2020/12/19 06:28:50;;;;;;;0.15;0.15;;;14.50;89.60;;;;;;4228405;28;20139;-46
2020/12/19 06:31:13;;;;;;;1.48;1.27;;;14.50;89.70;;;;;;4228423;28;20139;-43
2020/12/19 06:33:36;;;;;;;0.50;0.50;;;14.40;89.80;;;;;;4229575;28;20498;-47
2020/12/19 06:35:57;;;;;;;0.00;0.00;;;14.40;90.30;;;;;;4228020;28;20058;-46
2020/12/19 06:38:42;;;;;;;0.30;0.30;;;14.40;90.00;;;;;;4212469;28;20109;-44
2020/12/19 06:41:03;;;;;;;0.05;0.05;;;14.30;90.00;;;;;;4216389;28;20154;-45
2020/12/19 06:43:24;;;;;;;0.00;0.00;;;14.40;90.10;;;;;;4229069;28;20142;-43
2020/12/19 06:45:45;;;;;;;0.25;0.25;;;14.40;90.10;;;;;;4229491;28;20048;-46
2020/12/19 06:48:27;;;;;;;0.03;0.03;;;14.50;89.70;;;;;;4228990;28;20464;-42
2020/12/19 06:51:01;;;;;;;0.45;0.45;;;14.60;89.20;;;;;;4228939;28;20498;-44
2020/12/19 06:53:22;;;;;;;2.60;0.85;;;14.70;88.70;;;;;;4229478;28;20054;-43
2020/12/19 06:55:43;;;;;;;0.28;0.28;;;14.90;88.00;;;;;;4228701;28;20417;-43
2020/12/19 06:58:06;;;;;;;0.22;0.22;;;15.00;87.40;;;;;;4230237;28;20063;-43
2020/12/19 07:00:30;;;;;;;0.25;0.25;;;15.10;87.10;;;;;;4231028;27;20490;-42
2020/12/19 07:02:53;;;;;;;0.00;0.00;;;15.20;87.10;;;;;;4231603;28;20047;-42
2020/12/19 07:05:20;;;;;;;0.50;0.50;;;15.30;86.50;;;;;;4229655;28;20378;-43
2020/12/19 07:07:42;;;;;;;0.10;0.10;;;15.40;85.90;;;;;;4224740;28;20048;-42
2020/12/19 07:10:03;;;;;;;0.05;0.05;;;15.40;85.40;;;;;;4232474;28;20105;-43
2020/12/19 07:12:32;;;;;;;0.00;0.00;;;15.40;85.20;;;;;;4232403;28;20052;-43
2020/12/19 07:14:53;;;;;;;0.28;0.28;;;15.40;84.40;;;;;;4232177;28;20052;-42
2020/12/19 07:17:16;;;;;;;0.22;0.22;;;15.30;84.50;;;;;;4232427;28;20355;-42
2020/12/19 07:19:38;;;;;;;0.82;0.82;;;15.20;84.70;;;;;;4231758;27;20146;-42
2020/12/19 07:21:59;;;;;;;0.75;0.75;;;15.10;85.00;;;;;;4219158;28;20050;-44
2020/12/19 07:24:21;;;;;;;0.55;0.55;;;15.00;85.40;;;;;;4231978;28;20059;-43
2020/12/19 07:26:42;;;;;;;0.90;0.50;;;15.00;85.70;;;;;;4231763;28;20058;-42
2020/12/19 07:29:13;;;;;;;0.15;0.15;;;14.90;86.00;;;;;;4232023;27;20055;-43
2020/12/19 07:31:34;;;;;;;0.20;0.20;;;14.90;86.30;;;;;;4232276;28;20124;-42
2020/12/19 07:33:55;;;;;;;0.38;0.38;;;14.80;86.60;;;;;;4232176;28;20047;-43
2020/12/19 07:36:17;;;;;;;0.65;0.65;;;14.70;86.80;;;;;;4231590;28;20078;-43
2020/12/19 07:38:39;;;;;;;0.28;0.28;;;14.70;87.00;;;;;;4232003;28;20055;-42
2020/12/19 07:41:03;;;;;;;0.00;0.00;;;14.60;87.20;;;;;;4231067;28;20150;-42
2020/12/19 07:43:25;;;;;;;0.47;0.47;;;14.50;87.40;;;;;;4231215;28;20079;-42
2020/12/19 07:45:49;;;;;;;0.25;0.25;;;14.50;87.60;;;;;;4230056;28;20048;-42
2020/12/19 07:48:11;;;;;;;0.20;0.20;;;14.40;87.80;;;;;;4232188;28;20106;-42
2020/12/19 07:50:33;;;;;;;1.15;0.55;;;14.40;87.90;;;;;;4231499;28;20056;-42
2020/12/19 07:53:00;;;;;;;0.63;0.63;;;14.30;88.00;;;;;;4230830;28;20051;-41
2020/12/19 07:55:21;;;;;;;0.00;0.00;;;14.30;88.20;;;;;;4231109;27;20048;-41
2020/12/19 07:57:43;;;;;;;0.10;0.10;;;14.30;88.30;;;;;;4228342;28;20052;-41
2020/12/19 08:00:05;;;;;;;0.90;0.57;;;14.20;88.30;;;;;;4230705;28;20527;-42
2020/12/19 08:02:27;;;;;;;0.00;0.00;;;14.20;88.40;;;;;;4231060;27;20052;-42
2020/12/19 08:04:49;;;;;;;0.55;0.55;;;14.20;88.50;;;;;;4231235;28;20487;-42
2020/12/19 08:07:11;;;;;;;0.05;0.05;;;14.10;88.50;;;;;;4231306;28;20491;-42
2020/12/19 08:09:33;;;;;;;0.65;0.45;;;14.10;88.60;;;;;;4230365;28;20100;-42
2020/12/19 08:12:01;;;;;;;0.05;0.05;;;14.10;88.70;;;;;;4231512;28;20108;-42
2020/12/19 08:14:22;;;;;;;0.00;0.00;;;14.10;88.70;;;;;;4230854;28;20048;-41
2020/12/19 08:16:44;;;;;;;0.45;0.45;;;14.00;88.70;;;;;;4229877;28;20101;-41
2020/12/19 08:19:06;;;;;;;1.55;1.08;;;14.00;88.70;;;;;;4231282;27;20059;-41
2020/12/19 08:21:28;;;;;;;0.75;0.75;;;14.00;88.80;;;;;;4230637;27;20044;-42
2020/12/19 08:23:49;;;;;;;0.10;0.10;;;14.00;88.80;;;;;;4223249;28;20052;-41
2020/12/19 08:26:11;;;;;;;;;;;14.10;88.60;;;;;;4228147;28;20048;-41
2020/12/19 08:28:34;;;;;;;3.00;1.00;;;14.20;87.80;;;;;;4230801;28;19924;-41
2020/12/19 08:30:56;;;;;;;0.00;0.00;;;14.30;87.00;;;;;;4230819;28;20099;-41
2020/12/19 08:33:18;;;;;;;0.00;0.00;;;14.40;86.60;;;;;;4229988;28;20051;-41
2020/12/19 08:35:40;;;;;;;0.63;0.63;;;14.40;86.30;;;;;;4222222;27;20048;-41
2020/12/19 08:38:07;;;;;;;0.15;0.15;;;14.40;86.20;;;;;;4214443;28;20055;-40
2020/12/19 08:40:33;;;;;;;0.08;0.08;;;14.50;85.90;;;;;;4218603;28;20090;-42
2020/12/19 08:42:54;;;;;;;0.47;0.47;;;14.50;85.40;;;;;;4230276;28;20056;-41
2020/12/19 08:45:17;;;;;;;3.42;0.63;;;14.60;85.00;;;;;;4219979;28;20068;-42
2020/12/19 08:47:41;;;;;;;0.40;0.40;;;14.70;84.70;;;;;;4230921;28;20111;-42
2020/12/19 08:50:05;;;;;;;0.40;0.40;;;14.70;84.50;;;;;;4231029;28;20126;-41
2020/12/19 08:52:26;;;;;;;0.10;0.10;;;14.80;84.50;;;;;;4231001;27;20051;-41
2020/12/19 08:54:57;;;;;;;0.45;0.45;;;15.00;83.70;;;;;;4230309;28;20140;-42
2020/12/19 08:57:26;;;;;;;0.10;0.10;;;15.10;82.90;;;;;;4213261;28;20064;-42
2020/12/19 08:59:49;;;;;;;0.80;0.80;;;15.20;82.40;;;;;;4214910;28;20059;-42
2020/12/19 09:02:13;;;;;;;1.08;0.68;;;15.30;82.10;;;;;;4230758;28;20130;-42
2020/12/19 09:04:35;;;;;;;0.00;0.00;;;15.30;81.90;;;;;;4230800;28;20051;-41
2020/12/19 09:06:57;;;;;;;0.55;0.15;;;15.30;81.90;;;;;;4213878;28;20518;-41
2020/12/19 09:09:19;;;;;;;1.33;0.85;;;15.30;82.20;;;;;;4213856;28;20052;-42
2020/12/19 09:11:40;;;;;;;10.68;1.80;;;15.20;82.40;;;;;;4229480;28;20052;-42
2020/12/19 09:14:05;;;;;;;0.20;0.20;;;15.10;82.70;;;;;;4224166;28;20059;-42
2020/12/19 09:16:25;;;;;;;2.17;0.55;;;15.10;83.00;;;;;;4229971;28;20058;-42
2020/12/19 09:18:47;;;;;;;0.10;0.10;;;15.00;83.30;;;;;;4229757;27;20079;-42
2020/12/19 09:21:10;;;;;;;0.00;0.00;;;15.00;83.70;;;;;;4229828;28;20123;-42
2020/12/19 09:23:32;;;;;;;0.85;0.85;;;14.90;84.00;;;;;;4230482;28;20056;-42
2020/12/19 09:25:53;;;;;;;0.20;0.20;;;14.90;84.30;;;;;;4229874;28;20079;-44
2020/12/19 09:28:14;;;;;;;0.00;0.00;;;14.80;84.60;;;;;;4229886;28;20048;-42
2020/12/19 09:30:35;;;;;;;0.08;0.08;;;14.70;84.80;;;;;;4228947;28;20122;-42
2020/12/19 09:32:57;;;;;;;0.52;0.52;;;14.70;85.20;;;;;;4229866;28;20039;-40
2020/12/19 09:35:18;;;;;;;0.22;0.22;;;14.60;85.50;;;;;;4212938;28;20058;-42
2020/12/19 09:37:41;;;;;;;3.25;2.40;;;14.60;85.80;;;;;;4212998;28;20056;-42
2020/12/19 09:40:15;;;;;;;1.70;0.90;;;14.50;86.20;;;;;;4217611;28;20063;-42
2020/12/19 09:42:36;;;;;;;0.00;0.00;;;14.60;86.40;;;;;;4230106;28;20148;-42
2020/12/19 09:44:56;;;;;;;0.20;0.20;;;14.80;85.40;;;;;;4229621;27;20057;-43
2020/12/19 09:47:17;;;;;;;0.15;0.15;;;15.00;84.30;;;;;;4229737;28;20121;-42
2020/12/19 09:49:38;;;;;;;0.10;0.10;;;15.10;83.70;;;;;;4230133;28;20527;-42
2020/12/19 09:51:59;;;;;;;0.10;0.10;;;15.20;83.40;;;;;;4230085;28;20101;-41
2020/12/19 09:54:21;;;;;;;0.03;0.03;;;15.20;83.90;;;;;;4230077;28;20051;-42
2020/12/19 09:56:42;;;;;;;0.30;0.30;;;15.20;83.10;;;;;;4228923;28;20083;-43
2020/12/19 09:59:03;;;;;;;0.00;0.00;;;15.20;83.20;;;;;;4229534;28;20040;-42
2020/12/19 10:01:24;;;;;;;0.47;0.22;;;15.10;83.40;;;;;;4229024;28;20056;-42
2020/12/19 10:03:45;;;;;;;0.05;0.05;;;15.10;83.70;;;;;;4229918;28;20486;-42
2020/12/19 10:06:08;;;;;;;0.28;0.28;;;15.00;83.90;;;;;;4229942;28;20055;-42
2020/12/19 10:08:29;;;;;;;0.38;0.38;;;15.00;84.20;;;;;;4228532;28;20136;-42
2020/12/19 10:10:51;;;;;;;0.30;0.30;;;15.00;84.40;;;;;;4229417;28;20056;-42
2020/12/19 10:13:13;;;;;;;1.77;1.30;;;15.00;84.20;;;;;;4229835;28;20079;-42
2020/12/19 10:15:34;;;;;;;0.00;0.00;;;15.00;84.30;;;;;;4229849;28;20058;-42
2020/12/19 10:17:55;;;;;;;0.08;0.08;;;15.00;84.40;;;;;;4229779;28;20168;-42
2020/12/19 10:20:15;;;;;;;0.00;0.00;;;15.00;84.50;;;;;;4229456;28;20059;-42
2020/12/19 10:22:36;;;;;;;2.88;2.40;;;15.00;84.60;;;;;;4229780;28;20075;-43
2020/12/19 10:24:58;;;;;;;1.17;1.08;;;15.00;84.50;;;;;;4228986;28;20044;-41
2020/12/19 10:27:21;;;;;;;0.20;0.20;;;15.00;84.40;;;;;;4229139;28;20429;-43
2020/12/19 10:29:42;;;;;;;0.40;0.40;;;15.00;84.30;;;;;;4228817;28;20794;-42
2020/12/19 10:32:07;;;;;;;0.93;0.90;;;15.00;84.30;;;;;;4228187;27;20055;-45
2020/12/19 10:34:31;;;;;;;0.00;0.00;;;15.00;84.40;;;;;;4226654;28;20051;-42
2020/12/19 10:36:55;;;;;;;1.55;1.48;;;15.00;84.50;;;;;;4229352;28;20126;-43
2020/12/19 10:39:16;;;;;;;0.28;0.28;;;15.00;84.80;;;;;;4229240;28;20116;-43
2020/12/19 10:41:37;;;;;;;0.25;0.25;;;14.90;85.00;;;;;;4229505;28;20409;-41
2020/12/19 10:43:59;;;;;;;0.00;0.00;;;14.90;85.20;;;;;;4229481;28;20055;-42
2020/12/19 10:46:23;;;;;;;0.80;0.80;;;14.80;85.40;;;;;;4229110;28;20506;-42
2020/12/19 10:48:44;;;;;;;0.63;0.63;;;14.80;85.60;;;;;;4228905;28;20115;-42
2020/12/19 10:51:08;;;;;;;0.57;0.57;;;14.80;85.90;;;;;;4228070;28;20082;-42
2020/12/19 10:53:29;;;;;;;1.00;1.00;;;14.70;86.10;;;;;;4228773;28;20052;-42
2020/12/19 10:55:50;;;;;;;1.05;0.45;;;14.70;86.40;;;;;;4228625;28;20062;-43
2020/12/19 10:58:11;;;;;;;0.30;0.28;;;14.60;86.50;;;;;;4228693;28;20063;-42
2020/12/19 11:00:33;;;;;;;0.93;0.93;;;14.60;86.80;;;;;;4228733;28;20406;-42
2020/12/19 11:02:54;;;;;;;1.52;1.42;;;14.50;87.00;;;;;;4228525;28;20062;-41
2020/12/19 11:05:15;;;;;;;5.10;2.25;;;14.50;87.20;;;;;;4228830;28;20538;-41
2020/12/19 11:07:37;;;;;;;2.55;2.45;;;14.50;87.40;;;;;;4228781;28;20059;-43
2020/12/19 11:09:57;;;;;;;1.48;1.35;;;14.50;87.60;;;;;;4228827;28;20048;-45
2020/12/19 11:12:21;;;;;;;0.88;0.88;;;14.40;87.70;;;;;;4228876;28;20051;-41
2020/12/19 11:14:42;;;;;;;2.28;2.17;;;14.40;87.80;;;;;;4228473;28;20055;-42
2020/12/19 11:17:03;;;;;;;2.63;2.22;;;14.30;88.00;;;;;;4211901;28;20055;-42
2020/12/19 11:19:30;;;;;;;1.85;1.70;;;14.30;88.20;;;;;;4214692;28;20078;-41
2020/12/19 11:21:51;;;;;;;6.40;3.88;;;14.30;88.40;;;;;;4228719;28;20084;-42
2020/12/19 11:24:12;;;;;;;1.98;1.98;;;14.40;88.70;;;;;;4228524;28;20081;-43
2020/12/19 11:26:33;;;;;;;3.55;2.42;;;14.50;88.30;;;;;;4228626;28;20078;-42
2020/12/19 11:28:54;;;;;;;2.72;2.63;;;14.70;87.50;;;;;;4228491;28;20525;-41
2020/12/19 11:31:16;;;;;;;3.00;2.90;;;14.80;87.10;;;;;;4228425;28;20055;-42
2020/12/19 11:33:38;;;;;;;4.05;3.75;;;14.80;86.70;;;;;;4226848;28;20497;-43
2020/12/19 11:36:00;;;;;;;2.08;2.08;;;14.90;86.70;;;;;;4228351;28;20074;-42
2020/12/19 11:38:23;;;;;;;6.78;4.05;;;14.90;86.60;;;;;;4228467;28;20421;-42
2020/12/19 11:40:44;;;;;;;8.30;6.05;;;14.90;86.70;;;;;;4228312;28;20055;-41
2020/12/19 11:43:05;;;;;;;5.82;5.32;;;14.90;86.80;;;;;;4228406;28;20131;-42
2020/12/19 11:45:26;;;;;;;4.87;4.27;;;14.90;87.00;;;;;;4225060;28;20134;-42
2020/12/19 11:47:47;;;;;;;8.57;5.63;;;14.80;87.10;;;;;;4215134;28;20305;-42
2020/12/19 11:50:09;;;;;;;;;;;14.80;87.30;;;;;;4214942;28;20044;-41
2020/12/19 11:52:29;;;;;;;8.25;7.45;;;14.80;87.50;;;;;;4214653;28;19927;-43
2020/12/19 11:54:51;;;;;;;4.03;3.83;;;14.70;87.70;;;;;;4224437;28;20520;-41
2020/12/19 11:57:12;;;;;;;13.35;2.70;;;14.70;87.90;;;;;;4231457;28;20063;-42
2020/12/19 11:59:37;;;;;;;4.78;4.57;;;14.70;88.00;;;;;;4231197;28;20108;-42
2020/12/19 12:02:00;;;;;;;4.55;4.20;;;14.70;88.20;;;;;;4230980;28;20047;-42
2020/12/19 12:04:21;;;;;;;1.92;1.85;;;14.60;88.40;;;;;;4231036;28;20055;-42
2020/12/19 12:06:43;;;;;;;6.85;6.28;;;14.60;88.50;;;;;;4231053;28;20056;-42
2020/12/19 12:09:06;;;;;;;6.00;5.45;;;14.60;88.70;;;;;;4216875;28;20859;-42
2020/12/19 12:11:29;;;;;;;12.38;6.40;;;14.50;88.90;;;;;;4231611;28;20055;-42
2020/12/19 12:13:50;;;;;;;2.90;2.80;;;14.50;89.10;;;;;;4230805;28;20063;-41
2020/12/19 12:16:14;;;;;;;5.25;4.82;;;14.50;89.20;;;;;;4230911;28;20056;-41
2020/12/19 12:18:35;;;;;;;7.53;3.83;;;14.40;89.60;;;;;;4230564;28;20132;-41
2020/12/19 12:20:56;;;;;;;3.35;3.05;;;14.30;90.00;;;;;;4230797;28;20043;-42
2020/12/19 12:23:18;;;;;;;6.28;5.82;;;14.30;90.20;;;;;;4231143;27;20043;-42
2020/12/19 12:25:40;;;;;;;4.78;4.53;;;14.20;90.30;;;;;;4230903;28;20047;-42